createdAt,value
2022-12-12T00:00:30.194Z,24.92
2022-12-12T00:01:55.490Z,20.75
2022-12-12T00:03:19.192Z,20.80
2022-12-12T00:04:44.194Z,21.35
2022-12-12T00:06:07.831Z,24.20
2022-12-12T00:07:31.291Z,18.67
2022-12-12T00:08:55.175Z,19.85
2022-12-12T00:10:17.684Z,23.95
2022-12-12T00:11:41.608Z,24.23
2022-12-12T00:13:05.276Z,18.50
2022-12-12T00:14:29.567Z,20.80
2022-12-12T00:15:52.015Z,21.17
2022-12-12T00:17:15.448Z,20.60
2022-12-12T00:18:38.506Z,22.77
2022-12-12T00:20:03.444Z,17.52
2022-12-12T00:21:28.880Z,16.88
2022-12-12T00:22:52.261Z,17.73
2022-12-12T00:24:15.621Z,21.98
2022-12-12T00:25:39.066Z,16.65
2022-12-12T00:27:02.492Z,26.15
2022-12-12T00:28:26.584Z,18.48
2022-12-12T00:29:53.960Z,19.60
2022-12-12T00:31:17.820Z,19.02
2022-12-12T00:32:41.227Z,21.00
2022-12-12T00:34:03.632Z,18.13
2022-12-12T00:35:28.478Z,20.02
2022-12-12T00:36:52.372Z,20.92
2022-12-12T00:38:14.803Z,19.10
2022-12-12T00:39:38.265Z,24.73
2022-12-12T00:41:01.982Z,19.65
2022-12-12T00:42:27.248Z,19.00
2022-12-12T00:43:51.074Z,19.15
2022-12-12T00:45:14.882Z,19.15
2022-12-12T00:46:38.572Z,21.05
2022-12-12T00:48:02.018Z,22.38
2022-12-12T00:49:25.400Z,18.42
2022-12-12T00:50:50.312Z,19.75
2022-12-12T00:52:14.483Z,23.08
2022-12-12T00:53:38.069Z,18.48
2022-12-12T00:55:01.458Z,22.58
2022-12-12T00:56:25.562Z,21.70
2022-12-12T00:57:47.965Z,21.38
2022-12-12T00:59:11.437Z,19.08
2022-12-12T01:00:34.332Z,18.35
2022-12-12T01:01:57.763Z,22.52
2022-12-12T01:03:20.706Z,21.47
2022-12-12T01:04:44.173Z,19.42
2022-12-12T01:06:08.780Z,22.65
2022-12-12T01:07:32.173Z,21.13
2022-12-12T01:08:55.802Z,22.33
2022-12-12T01:10:18.455Z,21.02
2022-12-12T01:11:41.955Z,20.70
2022-12-12T01:13:04.689Z,20.40
2022-12-12T01:14:28.097Z,23.60
2022-12-12T01:15:51.527Z,18.52
2022-12-12T01:17:15.768Z,17.02
2022-12-12T01:18:39.795Z,23.38
2022-12-12T01:20:04.685Z,19.13
2022-12-12T01:21:29.511Z,23.88
2022-12-12T01:22:54.648Z,23.80
2022-12-12T01:24:18.010Z,24.70
2022-12-12T01:25:41.426Z,21.15
2022-12-12T01:27:04.980Z,21.92
2022-12-12T01:28:27.449Z,21.42
2022-12-12T01:29:50.998Z,20.17
2022-12-12T01:31:15.166Z,24.83
2022-12-12T01:32:37.593Z,23.67
2022-12-12T01:34:01.022Z,19.48
2022-12-12T01:35:24.196Z,22.23
2022-12-12T01:36:48.977Z,21.80
2022-12-12T01:38:12.466Z,23.20
2022-12-12T01:39:36.734Z,23.70
2022-12-12T01:40:59.141Z,25.88
2022-12-12T01:42:22.549Z,20.02
2022-12-12T01:43:46.326Z,21.05
2022-12-12T01:45:25.250Z,20.10
2022-12-12T01:46:48.795Z,21.73
2022-12-12T01:48:11.243Z,22.42
2022-12-12T01:49:35.425Z,24.55
2022-12-12T01:50:58.903Z,23.00
2022-12-12T01:52:26.533Z,21.73
2022-12-12T01:53:50.236Z,21.25
2022-12-12T01:55:18.895Z,20.97
2022-12-12T01:56:42.385Z,21.27
2022-12-12T01:58:06.411Z,22.90
2022-12-12T01:59:30.273Z,21.20
2022-12-12T02:00:52.737Z,21.40
2022-12-12T02:02:16.632Z,22.45
2022-12-12T02:03:40.838Z,23.55
2022-12-12T02:05:08.654Z,20.50
2022-12-12T02:06:31.225Z,22.42
2022-12-12T02:07:56.436Z,20.00
2022-12-12T02:09:21.126Z,19.92
2022-12-12T02:10:44.811Z,20.02
2022-12-12T02:12:08.553Z,22.77
2022-12-12T02:13:32.341Z,22.65
2022-12-12T02:14:56.196Z,23.10
2022-12-12T02:16:27.040Z,22.15
2022-12-12T02:18:03.714Z,22.67
2022-12-12T02:20:00.790Z,22.17
2022-12-12T02:21:29.838Z,19.52
2022-12-12T02:23:17.690Z,17.73
2022-12-12T02:25:02.742Z,22.00
2022-12-12T02:27:03.966Z,17.33
2022-12-12T02:28:52.554Z,20.65
2022-12-12T02:30:20.476Z,24.67
2022-12-12T02:31:50.394Z,17.70
2022-12-12T02:33:27.885Z,18.92
2022-12-12T02:34:55.804Z,25.58
2022-12-12T02:36:23.504Z,20.88
2022-12-12T02:37:52.474Z,21.08
2022-12-12T02:39:19.715Z,18.27
2022-12-12T02:40:47.949Z,21.35
2022-12-12T02:42:19.426Z,23.52
2022-12-12T02:43:46.380Z,21.63
2022-12-12T02:45:14.946Z,23.92
2022-12-12T02:46:42.067Z,21.17
2022-12-12T02:48:10.562Z,22.20
2022-12-12T02:49:37.873Z,20.95
2022-12-12T02:51:02.552Z,19.25
2022-12-12T02:52:26.112Z,19.55
2022-12-12T02:53:48.513Z,21.55
2022-12-12T02:55:12.141Z,16.27
2022-12-12T02:56:48.993Z,17.80
2022-12-12T02:58:12.536Z,20.50
2022-12-12T02:59:38.086Z,19.05
2022-12-12T03:01:12.281Z,21.38
2022-12-12T03:03:24.688Z,21.80
2022-12-12T03:05:22.714Z,21.63
2022-12-12T03:07:12.812Z,16.38
2022-12-12T03:08:46.492Z,21.00
2022-12-12T03:10:14.982Z,17.48
2022-12-12T03:11:51.222Z,24.20
2022-12-12T03:13:22.703Z,19.30
2022-12-12T03:14:52.419Z,22.85
2022-12-12T03:16:24.052Z,25.42
2022-12-12T03:17:50.345Z,20.38
2022-12-12T03:19:19.575Z,17.98
2022-12-12T03:20:47.924Z,19.20
2022-12-12T03:22:15.329Z,16.42
2022-12-12T03:23:42.531Z,21.05
2022-12-12T03:25:09.011Z,17.30
2022-12-12T03:26:34.574Z,19.17
2022-12-12T03:28:02.614Z,19.63
2022-12-12T03:29:29.399Z,20.40
2022-12-12T03:30:56.305Z,18.95
2022-12-12T03:32:23.332Z,18.25
2022-12-12T03:33:49.561Z,18.55
2022-12-12T03:35:16.797Z,18.70
2022-12-12T03:36:43.865Z,17.05
2022-12-12T03:38:10.259Z,20.48
2022-12-12T03:39:35.212Z,20.73
2022-12-12T03:41:00.410Z,19.65
2022-12-12T03:42:27.864Z,21.70
2022-12-12T03:43:55.685Z,20.85
2022-12-12T03:45:21.858Z,18.98
2022-12-12T03:46:49.122Z,20.48
2022-12-12T03:48:16.764Z,24.35
2022-12-12T03:49:42.572Z,18.83
2022-12-12T03:51:08.549Z,19.23
2022-12-12T03:52:37.093Z,18.30
2022-12-12T03:54:06.600Z,19.48
2022-12-12T03:55:36.946Z,20.80
2022-12-12T03:57:02.842Z,15.70
2022-12-12T03:58:29.969Z,21.17
2022-12-12T03:59:56.132Z,20.15
2022-12-12T04:01:21.412Z,20.58
2022-12-12T04:02:51.882Z,17.30
2022-12-12T04:04:17.793Z,17.08
2022-12-12T04:06:01.174Z,20.27
2022-12-12T04:07:26.264Z,20.88
2022-12-12T04:09:08.998Z,16.40
2022-12-12T04:10:53.932Z,19.73
2022-12-12T04:12:38.484Z,22.98
2022-12-12T04:14:08.772Z,16.00
2022-12-12T04:15:48.460Z,18.75
2022-12-12T04:17:14.685Z,16.15
2022-12-12T04:18:42.363Z,18.98
2022-12-12T04:20:32.097Z,20.13
2022-12-12T04:22:18.989Z,19.60
2022-12-12T04:23:52.370Z,17.17
2022-12-12T04:25:26.149Z,17.08
2022-12-12T04:26:51.643Z,17.67
2022-12-12T04:28:15.150Z,19.65
2022-12-12T04:29:41.829Z,17.27
2022-12-12T04:31:06.778Z,16.05
2022-12-12T04:32:33.539Z,18.20
2022-12-12T04:34:01.564Z,18.80
2022-12-12T04:35:29.859Z,16.50
2022-12-12T04:36:53.824Z,16.10
2022-12-12T04:38:21.334Z,17.55
2022-12-12T04:39:53.513Z,16.10
2022-12-12T04:41:17.410Z,20.13
2022-12-12T04:42:46.433Z,15.95
2022-12-12T04:44:11.872Z,20.10
2022-12-12T04:45:37.428Z,12.70
2022-12-12T04:47:02.607Z,13.90
2022-12-12T04:48:29.694Z,12.95
2022-12-12T04:49:54.999Z,16.98
2022-12-12T04:51:20.693Z,20.88
2022-12-12T04:52:45.496Z,15.23
2022-12-12T04:54:11.383Z,12.95
2022-12-12T04:55:38.127Z,14.50
2022-12-12T04:57:04.000Z,13.48
2022-12-12T04:58:27.516Z,11.57
2022-12-12T04:59:51.866Z,13.98
2022-12-12T05:01:17.883Z,12.80
2022-12-12T05:02:45.075Z,15.25
2022-12-12T05:04:12.377Z,11.77
2022-12-12T05:05:40.703Z,15.18
2022-12-12T05:07:07.584Z,15.50
2022-12-12T05:08:33.438Z,12.65
2022-12-12T05:09:57.544Z,11.73
2022-12-12T05:11:22.988Z,10.05
2022-12-12T05:12:48.396Z,13.77
2022-12-12T05:14:12.264Z,10.13
2022-12-12T05:15:38.180Z,11.55
2022-12-12T05:17:08.170Z,11.60
2022-12-12T05:18:31.645Z,11.95
2022-12-12T05:19:55.171Z,12.32
2022-12-12T05:21:18.877Z,9.48
2022-12-12T05:22:42.365Z,12.75
2022-12-12T05:24:06.416Z,11.73
2022-12-12T05:25:29.840Z,11.02
2022-12-12T05:26:54.851Z,13.05
2022-12-12T05:28:18.226Z,12.23
2022-12-12T05:29:41.657Z,11.95
2022-12-12T05:31:05.718Z,9.57
2022-12-12T05:32:29.592Z,9.00
2022-12-12T05:33:53.056Z,9.63
2022-12-12T05:35:16.632Z,12.20
2022-12-12T05:36:39.244Z,9.40
2022-12-12T05:38:03.093Z,7.50
2022-12-12T05:39:26.491Z,8.93
2022-12-12T05:40:50.703Z,9.98
2022-12-12T05:42:15.514Z,6.93
2022-12-12T05:43:39.204Z,8.55
2022-12-12T05:45:02.645Z,9.27
2022-12-12T05:46:26.078Z,11.77
2022-12-12T05:47:49.505Z,7.35
2022-12-12T05:49:12.928Z,7.88
2022-12-12T05:50:36.296Z,8.32
2022-12-12T05:51:59.706Z,9.73
2022-12-12T05:53:23.327Z,7.35
2022-12-12T05:54:46.753Z,6.45
2022-12-12T05:56:11.378Z,6.45
2022-12-12T05:57:36.260Z,7.40
2022-12-12T05:58:59.659Z,7.88
2022-12-12T06:00:23.504Z,6.45
2022-12-12T06:01:47.163Z,8.45
2022-12-12T06:03:10.619Z,7.30
2022-12-12T06:04:34.085Z,7.68
2022-12-12T06:05:57.528Z,5.43
2022-12-12T06:07:20.908Z,7.03
2022-12-12T06:08:44.331Z,6.28
2022-12-12T06:10:09.191Z,6.72
2022-12-12T06:11:32.588Z,5.90
2022-12-12T06:12:57.700Z,5.45
2022-12-12T06:14:21.316Z,7.60
2022-12-12T06:15:44.824Z,7.18
2022-12-12T06:17:08.241Z,5.25
2022-12-12T06:18:31.597Z,6.90
2022-12-12T06:19:54.974Z,4.80
2022-12-12T06:21:18.357Z,5.90
2022-12-12T06:22:42.321Z,5.97
2022-12-12T06:24:07.345Z,7.22
2022-12-12T06:25:31.097Z,7.30
2022-12-12T06:26:54.682Z,7.65
2022-12-12T06:28:19.402Z,8.18
2022-12-12T06:29:42.962Z,7.65
2022-12-12T06:31:11.571Z,6.72
2022-12-12T06:32:35.637Z,6.22
2022-12-12T06:33:59.053Z,7.05
2022-12-12T06:35:22.506Z,5.72
2022-12-12T06:36:45.895Z,5.35
2022-12-12T06:38:09.354Z,4.47
2022-12-12T06:39:33.068Z,9.85
2022-12-12T06:40:56.520Z,7.35
2022-12-12T06:42:19.907Z,7.53
2022-12-12T06:43:44.911Z,5.45
2022-12-12T06:45:09.026Z,4.20
2022-12-12T06:46:32.818Z,7.93
2022-12-12T06:47:56.245Z,7.07
2022-12-12T06:49:19.621Z,7.82
2022-12-12T06:50:43.728Z,6.18
2022-12-12T06:52:07.141Z,7.45
2022-12-12T06:53:29.514Z,9.73
2022-12-12T06:54:53.017Z,7.80
2022-12-12T06:56:17.092Z,6.35
2022-12-12T06:57:40.450Z,9.88
2022-12-12T06:59:05.302Z,6.90
2022-12-12T07:00:28.719Z,7.57
2022-12-12T07:01:52.273Z,7.65
2022-12-12T07:03:15.777Z,4.88
2022-12-12T07:04:39.186Z,5.13
2022-12-12T07:06:02.657Z,5.78
2022-12-12T07:07:26.309Z,4.95
2022-12-12T07:08:49.898Z,4.65
2022-12-12T07:10:13.277Z,5.40
2022-12-12T07:11:36.647Z,5.13
2022-12-12T07:12:59.994Z,6.28
2022-12-12T07:14:24.712Z,5.25
2022-12-12T07:15:49.900Z,3.70
2022-12-12T07:17:13.387Z,8.35
2022-12-12T07:18:36.845Z,5.53
2022-12-12T07:20:00.199Z,4.53
2022-12-12T07:21:23.634Z,4.18
2022-12-12T07:22:47.077Z,7.57
2022-12-12T07:24:10.482Z,4.93
2022-12-12T07:25:33.887Z,5.70
2022-12-12T07:26:57.295Z,3.60
2022-12-12T07:28:20.685Z,6.07
2022-12-12T07:29:45.633Z,3.42
2022-12-12T07:31:11.762Z,5.10
2022-12-12T07:32:35.916Z,4.22
2022-12-12T07:33:59.402Z,5.00
2022-12-12T07:35:23.341Z,6.28
2022-12-12T07:36:46.754Z,4.75
2022-12-12T07:38:11.343Z,4.15
2022-12-12T07:39:35.223Z,4.57
2022-12-12T07:41:02.146Z,4.57
2022-12-12T07:42:25.795Z,6.32
2022-12-12T07:43:49.839Z,7.28
2022-12-12T07:45:18.299Z,3.95
2022-12-12T07:46:42.161Z,2.97
2022-12-12T07:48:05.937Z,9.50
2022-12-12T07:49:30.187Z,4.85
2022-12-12T07:50:53.581Z,2.97
2022-12-12T07:52:17.068Z,4.50
2022-12-12T07:53:40.636Z,6.47
2022-12-12T07:55:04.098Z,4.95
2022-12-12T07:56:27.573Z,4.97
2022-12-12T07:57:51.013Z,6.10
2022-12-12T07:59:14.862Z,6.68
2022-12-12T08:00:39.813Z,5.60
2022-12-12T08:02:03.385Z,5.55
2022-12-12T08:03:26.843Z,5.80
2022-12-12T08:04:50.296Z,7.13
2022-12-12T08:06:14.378Z,4.55
2022-12-12T08:07:37.753Z,5.32
2022-12-12T08:09:01.132Z,4.65
2022-12-12T08:10:24.697Z,5.15
2022-12-12T08:11:48.165Z,4.90
2022-12-12T08:13:11.949Z,5.55
2022-12-12T08:14:35.498Z,4.75
2022-12-12T08:16:00.331Z,3.42
2022-12-12T08:17:23.819Z,3.58
2022-12-12T08:18:48.987Z,3.95
2022-12-12T08:20:12.746Z,5.40
2022-12-12T08:21:36.145Z,6.28
2022-12-12T08:23:00.865Z,4.88
2022-12-12T08:24:24.357Z,4.20
2022-12-12T08:25:47.940Z,5.07
2022-12-12T08:27:15.600Z,5.28
2022-12-12T08:28:41.313Z,4.25
2022-12-12T08:30:05.352Z,4.97
2022-12-12T08:31:30.426Z,5.03
2022-12-12T08:32:53.890Z,5.93
2022-12-12T08:34:17.311Z,3.40
2022-12-12T08:35:40.773Z,4.47
2022-12-12T08:37:04.257Z,6.15
2022-12-12T08:38:28.919Z,6.93
2022-12-12T08:39:55.582Z,4.90
2022-12-12T08:41:21.009Z,6.53
2022-12-12T08:42:44.709Z,5.13
2022-12-12T08:44:08.460Z,7.47
2022-12-12T08:45:31.882Z,5.72
2022-12-12T08:46:57.047Z,4.70
2022-12-12T08:48:20.602Z,6.25
2022-12-12T08:49:44.178Z,6.28
2022-12-12T08:51:07.645Z,6.38
2022-12-12T08:52:31.104Z,5.10
2022-12-12T08:53:54.603Z,5.47
2022-12-12T08:55:18.157Z,5.00
2022-12-12T08:56:41.810Z,5.25
2022-12-12T08:58:05.380Z,6.25
2022-12-12T08:59:29.047Z,5.50
2022-12-12T09:00:52.950Z,3.85
2022-12-12T09:02:17.793Z,5.65
2022-12-12T09:03:41.482Z,8.63
2022-12-12T09:05:05.112Z,4.68
2022-12-12T09:06:28.921Z,5.25
2022-12-12T09:07:52.483Z,4.63
2022-12-12T09:09:15.993Z,5.85
2022-12-12T09:10:39.750Z,5.00
2022-12-12T09:12:03.298Z,3.33
2022-12-12T09:13:26.849Z,6.30
2022-12-12T09:14:50.243Z,3.63
2022-12-12T09:16:14.479Z,4.63
2022-12-12T09:17:39.303Z,4.55
2022-12-12T09:19:03.120Z,5.28
2022-12-12T09:20:26.570Z,4.90
2022-12-12T09:21:49.967Z,4.82
2022-12-12T09:23:13.334Z,5.68
2022-12-12T09:24:36.765Z,5.80
2022-12-12T09:26:00.280Z,4.25
2022-12-12T09:27:23.654Z,4.90
2022-12-12T09:28:47.101Z,5.32
2022-12-12T09:30:11.808Z,4.47
2022-12-12T09:31:35.321Z,5.07
2022-12-12T09:33:00.185Z,3.67
2022-12-12T09:34:23.566Z,3.72
2022-12-12T09:35:47.044Z,6.05
2022-12-12T09:37:10.806Z,3.53
2022-12-12T09:38:34.672Z,4.47
2022-12-12T09:39:58.141Z,4.30
2022-12-12T09:41:24.545Z,5.80
2022-12-12T09:42:51.114Z,3.78
2022-12-12T09:44:18.758Z,8.18
2022-12-12T09:45:42.182Z,5.65
2022-12-12T09:47:08.615Z,5.57
2022-12-12T09:48:42.085Z,3.15
2022-12-12T09:50:12.381Z,4.47
2022-12-12T09:51:37.037Z,3.63
2022-12-12T09:53:03.036Z,4.93
2022-12-12T09:54:27.858Z,5.60
2022-12-12T09:55:56.666Z,3.70
2022-12-12T09:57:25.605Z,4.30
2022-12-12T09:58:56.522Z,6.70
2022-12-12T10:00:20.742Z,3.40
2022-12-12T10:01:53.586Z,4.35
2022-12-12T10:03:27.050Z,4.63
2022-12-12T10:04:59.487Z,4.05
2022-12-12T10:06:39.390Z,5.00
2022-12-12T10:08:09.350Z,4.13
2022-12-12T10:09:41.351Z,4.90
2022-12-12T10:11:28.349Z,4.18
2022-12-12T10:12:52.190Z,4.10
2022-12-12T10:14:15.786Z,4.88
2022-12-12T10:15:41.647Z,3.70
2022-12-12T10:17:08.489Z,5.43
2022-12-12T10:18:34.979Z,3.65
2022-12-12T10:20:04.102Z,4.72
2022-12-12T10:21:30.157Z,6.78
2022-12-12T10:22:57.607Z,4.93
2022-12-12T10:24:29.638Z,3.92
2022-12-12T10:25:57.417Z,3.88
2022-12-12T10:27:20.894Z,6.85
2022-12-12T10:28:44.525Z,4.10
2022-12-12T10:30:16.598Z,3.58
2022-12-12T10:31:45.192Z,5.35
2022-12-12T10:33:20.708Z,5.32
2022-12-12T10:34:55.305Z,3.05
2022-12-12T10:36:26.781Z,9.55
2022-12-12T10:38:00.696Z,3.53
2022-12-12T10:39:30.893Z,4.38
2022-12-12T10:41:00.180Z,4.82
2022-12-12T10:42:27.950Z,4.22
2022-12-12T10:43:58.212Z,3.95
2022-12-12T10:45:35.605Z,3.75
2022-12-12T10:47:02.705Z,6.05
2022-12-12T10:48:26.171Z,5.05
2022-12-12T10:49:49.543Z,4.95
2022-12-12T10:51:17.614Z,4.47
2022-12-12T10:52:44.418Z,4.97
2022-12-12T10:54:15.043Z,4.07
2022-12-12T10:55:45.332Z,4.40
2022-12-12T10:57:16.647Z,4.68
2022-12-12T10:58:45.478Z,4.75
2022-12-12T11:00:19.759Z,4.97
2022-12-12T11:02:08.965Z,4.32
2022-12-12T11:03:28.839Z,3.92
2022-12-12T11:05:00.562Z,4.57
2022-12-12T11:06:32.408Z,4.80
2022-12-12T11:08:04.359Z,6.82
2022-12-12T11:09:29.190Z,5.30
2022-12-12T11:11:07.983Z,6.57
2022-12-12T11:12:35.718Z,4.65
2022-12-12T11:14:01.229Z,4.22
2022-12-12T11:15:31.977Z,6.88
2022-12-12T11:16:55.443Z,4.43
2022-12-12T11:18:20.735Z,4.43
2022-12-12T11:19:47.452Z,5.10
2022-12-12T11:21:12.750Z,5.90
2022-12-12T11:22:36.378Z,3.30
2022-12-12T11:24:04.274Z,4.03
2022-12-12T11:25:30.647Z,4.10
2022-12-12T11:26:58.711Z,4.70
2022-12-12T11:28:25.441Z,6.10
2022-12-12T11:29:51.500Z,4.10
2022-12-12T11:31:17.531Z,5.40
2022-12-12T11:32:43.930Z,6.82
2022-12-12T11:34:08.101Z,6.45
2022-12-12T11:35:34.660Z,6.70
2022-12-12T11:36:59.769Z,7.60
2022-12-12T11:38:28.081Z,6.00
2022-12-12T11:39:54.542Z,7.65
2022-12-12T11:41:18.234Z,7.68
2022-12-12T11:42:41.664Z,4.63
2022-12-12T11:44:05.053Z,4.05
2022-12-12T11:45:28.750Z,7.40
2022-12-12T11:46:52.223Z,4.50
2022-12-12T11:48:38.640Z,7.22
2022-12-12T11:50:06.359Z,6.15
2022-12-12T11:51:39.743Z,6.18
2022-12-12T11:53:03.176Z,7.93
2022-12-12T11:54:30.959Z,6.50
2022-12-12T11:56:03.878Z,4.72
2022-12-12T11:57:45.105Z,5.25
2022-12-12T11:59:24.391Z,7.95
2022-12-12T12:00:51.711Z,8.15
2022-12-12T12:02:57.057Z,7.35
2022-12-12T12:04:35.191Z,5.55
2022-12-12T12:06:15.511Z,5.18
2022-12-12T12:07:51.842Z,6.18
2022-12-12T12:09:26.786Z,5.88
2022-12-12T12:10:59.829Z,12.02
2022-12-12T12:12:28.801Z,10.75
2022-12-12T12:14:04.528Z,10.38
2022-12-12T12:15:33.973Z,8.98
2022-12-12T12:17:04.850Z,6.32
2022-12-12T12:18:39.104Z,5.93
2022-12-12T12:20:09.648Z,6.45
2022-12-12T12:21:44.487Z,5.57
2022-12-12T12:23:15.447Z,4.55
2022-12-12T12:25:16.255Z,3.88
2022-12-12T12:26:44.935Z,7.93
2022-12-12T12:28:24.004Z,8.60
2022-12-12T12:30:08.796Z,5.55
2022-12-12T12:31:40.568Z,3.88
2022-12-12T12:33:28.535Z,7.53
2022-12-12T12:35:03.869Z,7.25
2022-12-12T12:36:29.899Z,5.90
2022-12-12T12:38:08.234Z,3.47
2022-12-12T12:39:47.695Z,4.90
2022-12-12T12:41:24.570Z,5.32
2022-12-12T12:43:01.358Z,4.63
2022-12-12T12:44:36.302Z,6.22
2022-12-12T12:46:05.823Z,8.32
2022-12-12T12:47:36.989Z,4.97
2022-12-12T12:49:04.482Z,6.00
2022-12-12T12:50:30.732Z,3.60
2022-12-12T12:51:57.106Z,5.25
2022-12-12T12:53:33.637Z,5.93
2022-12-12T12:54:59.221Z,4.95
2022-12-12T12:56:26.955Z,5.10
2022-12-12T12:57:53.115Z,4.20
2022-12-12T12:59:19.943Z,9.35
2022-12-12T13:00:43.594Z,5.38
2022-12-12T13:02:19.200Z,4.75
2022-12-12T13:03:49.663Z,7.28
2022-12-12T13:05:18.388Z,4.57
2022-12-12T13:06:45.597Z,5.10
2022-12-12T13:08:18.193Z,3.70
2022-12-12T13:09:45.109Z,5.78
2022-12-12T13:11:12.019Z,5.63
2022-12-12T13:12:38.478Z,3.20
2022-12-12T13:14:10.654Z,7.28
2022-12-12T13:15:37.137Z,5.50
2022-12-12T13:17:06.666Z,7.60
2022-12-12T13:18:44.638Z,6.50
2022-12-12T13:20:16.554Z,4.28
2022-12-12T13:21:45.293Z,5.40
2022-12-12T13:23:29.535Z,7.72
2022-12-12T13:24:59.830Z,4.75
2022-12-12T13:26:28.023Z,4.28
2022-12-12T13:27:53.954Z,4.85
2022-12-12T13:29:36.455Z,4.63
2022-12-12T13:31:26.877Z,5.53
2022-12-12T13:33:27.855Z,5.05
2022-12-12T13:34:54.669Z,5.18
2022-12-12T13:36:25.969Z,6.70
2022-12-12T13:37:53.836Z,9.45
2022-12-12T13:39:27.607Z,7.72
2022-12-12T13:40:58.056Z,6.82
2022-12-12T13:42:21.409Z,5.60
2022-12-12T13:43:47.098Z,4.28
2022-12-12T13:45:38.004Z,4.43
2022-12-12T13:47:01.414Z,9.73
2022-12-12T13:48:46.776Z,5.85
2022-12-12T13:50:22.557Z,6.47
2022-12-12T13:51:46.759Z,7.22
2022-12-12T13:53:27.755Z,4.35
2022-12-12T13:54:51.898Z,9.50
2022-12-12T13:56:39.487Z,9.68
2022-12-12T13:58:17.760Z,5.60
2022-12-12T14:00:19.134Z,6.30
2022-12-12T14:01:43.940Z,6.57
2022-12-12T14:03:26.188Z,7.95
2022-12-12T14:05:09.362Z,9.13
2022-12-12T14:06:32.929Z,8.07
2022-12-12T14:08:02.183Z,7.68
2022-12-12T14:09:46.285Z,7.68
2022-12-12T14:11:20.853Z,9.63
2022-12-12T14:12:44.284Z,8.05
2022-12-12T14:14:22.238Z,8.70
2022-12-12T14:15:46.573Z,6.22
2022-12-12T14:17:22.212Z,8.00
2022-12-12T14:19:06.728Z,8.43
2022-12-12T14:20:32.867Z,9.30
2022-12-12T14:21:56.650Z,8.40
2022-12-12T14:23:28.919Z,7.88
2022-12-12T14:25:08.056Z,8.13
2022-12-12T14:26:50.446Z,7.63
2022-12-12T14:28:20.893Z,10.70
2022-12-12T14:29:45.251Z,8.73
2022-12-12T14:31:17.026Z,8.43
2022-12-12T14:32:47.091Z,14.35
2022-12-12T14:34:21.026Z,10.23
2022-12-12T14:35:48.513Z,9.57
2022-12-12T14:37:34.930Z,11.63
2022-12-12T14:39:05.777Z,11.25
2022-12-12T14:40:31.285Z,9.88
2022-12-12T14:41:54.978Z,16.15
2022-12-12T14:43:23.425Z,11.07
2022-12-12T14:44:50.801Z,13.43
2022-12-12T14:46:17.243Z,10.93
2022-12-12T14:47:42.321Z,17.15
2022-12-12T14:49:06.830Z,14.57
2022-12-12T14:50:30.311Z,12.43
2022-12-12T14:51:56.474Z,12.70
2022-12-12T14:53:22.304Z,10.48
2022-12-12T14:54:45.787Z,10.38
2022-12-12T14:56:10.873Z,13.25
2022-12-12T14:57:34.419Z,10.65
2022-12-12T14:59:00.273Z,9.70
2022-12-12T15:00:23.895Z,14.13
2022-12-12T15:01:49.094Z,10.10
2022-12-12T15:03:14.503Z,12.40
2022-12-12T15:04:39.551Z,9.85
2022-12-12T15:06:32.632Z,9.68
2022-12-12T15:08:00.605Z,10.00
2022-12-12T15:09:30.224Z,9.77
2022-12-12T15:10:59.986Z,14.88
2022-12-12T15:12:24.954Z,9.00
2022-12-12T15:13:52.700Z,11.32
2022-12-12T15:15:24.827Z,11.07
2022-12-12T15:16:51.076Z,9.38
2022-12-12T15:18:17.731Z,9.63
2022-12-12T15:19:43.410Z,10.90
2022-12-12T15:21:07.020Z,11.65
2022-12-12T15:22:31.939Z,9.27
2022-12-12T15:23:55.582Z,9.00
2022-12-12T15:25:21.692Z,8.90
2022-12-12T15:26:46.693Z,9.25
2022-12-12T15:28:15.666Z,13.70
2022-12-12T15:29:39.610Z,11.48
2022-12-12T15:31:03.433Z,17.88
2022-12-12T15:32:27.961Z,10.82
2022-12-12T15:33:53.010Z,11.48
2022-12-12T15:35:22.546Z,14.80
2022-12-12T15:36:45.946Z,13.23
2022-12-12T15:38:13.288Z,9.32
2022-12-12T15:39:35.862Z,13.30
2022-12-12T15:41:01.368Z,11.20
2022-12-12T15:42:24.840Z,10.50
2022-12-12T15:43:48.361Z,12.48
2022-12-12T15:45:18.914Z,12.25
2022-12-12T15:46:42.442Z,10.82
2022-12-12T15:48:07.789Z,9.35
2022-12-12T15:49:40.091Z,9.32
2022-12-12T15:51:04.876Z,8.73
2022-12-12T15:52:30.321Z,10.15
2022-12-12T15:53:55.311Z,10.85
2022-12-12T15:55:21.530Z,6.68
2022-12-12T15:56:51.416Z,11.73
2022-12-12T15:58:28.907Z,13.82
2022-12-12T15:59:58.875Z,9.77
2022-12-12T16:01:28.042Z,9.50
2022-12-12T16:03:00.275Z,8.88
2022-12-12T16:04:25.919Z,9.77
2022-12-12T16:06:04.020Z,9.88
2022-12-12T16:07:27.463Z,10.73
2022-12-12T16:09:00.466Z,9.02
2022-12-12T16:10:24.992Z,7.35
2022-12-12T16:11:49.919Z,9.85
2022-12-12T16:13:26.299Z,9.88
2022-12-12T16:14:49.842Z,9.65
2022-12-12T16:16:34.442Z,9.80
2022-12-12T16:18:03.749Z,9.60
2022-12-12T16:19:40.603Z,7.82
2022-12-12T16:21:05.519Z,11.10
2022-12-12T16:22:35.153Z,9.60
2022-12-12T16:24:11.209Z,8.88
2022-12-12T16:25:35.741Z,8.30
2022-12-12T16:26:59.624Z,9.15
2022-12-12T16:28:25.990Z,10.00
2022-12-12T16:29:49.701Z,8.43
2022-12-12T16:31:17.479Z,8.57
2022-12-12T16:32:41.190Z,8.65
2022-12-12T16:34:05.541Z,9.82
2022-12-12T16:35:28.914Z,11.02
2022-12-12T16:36:54.098Z,10.70
2022-12-12T16:38:18.674Z,9.50
2022-12-12T16:39:42.100Z,10.73
2022-12-12T16:41:07.324Z,10.70
2022-12-12T16:42:31.032Z,10.45
2022-12-12T16:43:54.449Z,8.55
2022-12-12T16:45:18.111Z,8.48
2022-12-12T16:46:41.494Z,7.90
2022-12-12T16:48:14.430Z,11.75
2022-12-12T16:49:37.807Z,10.70
2022-12-12T16:51:04.277Z,11.25
2022-12-12T16:52:29.144Z,9.50
2022-12-12T16:53:52.665Z,8.93
2022-12-12T16:55:21.025Z,8.35
2022-12-12T16:56:44.532Z,9.82
2022-12-12T16:58:08.016Z,11.73
2022-12-12T16:59:31.467Z,9.02
2022-12-12T17:00:54.992Z,10.32
2022-12-12T17:02:21.320Z,10.20
2022-12-12T17:03:45.123Z,9.95
2022-12-12T17:05:12.902Z,11.90
2022-12-12T17:06:36.271Z,12.88
2022-12-12T17:08:01.238Z,11.48
2022-12-12T17:09:29.822Z,9.90
2022-12-12T17:11:10.174Z,8.55
2022-12-12T17:12:34.145Z,9.63
2022-12-12T17:13:57.530Z,12.77
2022-12-12T17:15:23.909Z,10.52
2022-12-12T17:16:47.431Z,8.05
2022-12-12T17:18:10.867Z,8.98
2022-12-12T17:19:34.548Z,12.00
2022-12-12T17:20:59.064Z,9.52
2022-12-12T17:22:22.436Z,8.50
2022-12-12T17:23:47.173Z,9.75
2022-12-12T17:25:11.091Z,10.77
2022-12-12T17:26:35.068Z,8.55
2022-12-12T17:27:58.934Z,8.85
2022-12-12T17:29:22.389Z,9.80
2022-12-12T17:30:45.950Z,10.25
2022-12-12T17:32:09.318Z,8.85
2022-12-12T17:33:32.743Z,9.48
2022-12-12T17:34:56.141Z,10.65
2022-12-12T17:36:19.746Z,8.50
2022-12-12T17:37:43.225Z,7.50
2022-12-12T17:39:08.069Z,7.43
2022-12-12T17:40:31.786Z,8.40
2022-12-12T17:41:55.231Z,7.90
2022-12-12T17:43:19.072Z,8.00
2022-12-12T17:44:42.566Z,10.13
2022-12-12T17:46:08.135Z,9.05
2022-12-12T17:47:31.630Z,9.98
2022-12-12T17:48:56.777Z,8.23
2022-12-12T17:50:20.436Z,10.40
2022-12-12T17:51:43.834Z,14.30
2022-12-12T17:53:07.211Z,8.75
2022-12-12T17:54:32.359Z,9.65
2022-12-12T17:56:00.980Z,10.77
2022-12-12T17:57:25.552Z,9.27
2022-12-12T17:58:50.301Z,10.13
2022-12-12T18:00:14.966Z,7.75
2022-12-12T18:01:38.757Z,9.40
2022-12-12T18:03:02.148Z,12.32
2022-12-12T18:04:28.494Z,8.68
2022-12-12T18:05:52.218Z,12.23
2022-12-12T18:07:15.791Z,10.50
2022-12-12T18:08:39.950Z,11.80
2022-12-12T18:10:05.004Z,8.07
2022-12-12T18:11:31.337Z,7.57
2022-12-12T18:12:54.767Z,9.18
2022-12-12T18:14:19.166Z,8.43
2022-12-12T18:15:44.423Z,6.68
2022-12-12T18:17:07.862Z,7.03
2022-12-12T18:18:31.317Z,7.57
2022-12-12T18:19:54.678Z,6.03
2022-12-12T18:21:43.278Z,6.60
2022-12-12T18:23:03.052Z,7.43
2022-12-12T18:24:29.386Z,5.47
2022-12-12T18:25:54.160Z,6.47
2022-12-12T18:27:17.694Z,10.30
2022-12-12T18:28:41.795Z,10.35
2022-12-12T18:30:06.006Z,7.45
2022-12-12T18:31:30.159Z,9.13
2022-12-12T18:32:57.142Z,8.20
2022-12-12T18:34:23.230Z,8.65
2022-12-12T18:35:46.651Z,7.65
2022-12-12T18:37:10.061Z,8.07
2022-12-12T18:38:34.095Z,7.60
2022-12-12T18:39:57.459Z,9.45
2022-12-12T18:41:22.335Z,9.27
2022-12-12T18:42:46.896Z,9.65
2022-12-12T18:44:13.694Z,10.10
2022-12-12T18:45:37.819Z,6.35
2022-12-12T18:47:01.422Z,6.60
2022-12-12T18:48:24.800Z,11.70
2022-12-12T18:49:48.174Z,9.60
2022-12-12T18:51:12.939Z,8.40
2022-12-12T18:52:36.380Z,9.43
2022-12-12T18:54:06.090Z,7.15
2022-12-12T18:55:31.559Z,6.90
2022-12-12T18:56:56.301Z,8.50
2022-12-12T18:58:19.770Z,7.43
2022-12-12T18:59:43.138Z,9.65
2022-12-12T19:01:10.015Z,9.75
2022-12-12T19:02:37.192Z,5.63
2022-12-12T19:04:04.621Z,9.70
2022-12-12T19:05:32.559Z,15.15
2022-12-12T19:06:56.220Z,8.23